sensor_id;sensor_type;location;lat;lon;timestamp;pressure;altitude;pressure_sealevel;temperature;humidity
76114;BME280;64845;53.086;5.834;2023-04-01T00:00:55;99148.66;;;9.82;83.67
76114;BME280;64845;53.086;5.834;2023-04-01T00:03:21;99157.59;;;9.81;83.49
76114;BME280;64845;53.086;5.834;2023-04-01T00:05:47;99156.66;;;9.82;83.23
76114;BME280;64845;53.086;5.834;2023-04-01T00:08:13;99157.53;;;9.83;83.49
76114;BME280;64845;53.086;5.834;2023-04-01T00:10:39;99152.19;;;9.83;83.39
76114;BME280;64845;53.086;5.834;2023-04-01T00:13:05;99160.19;;;9.83;83.66
76114;BME280;64845;53.086;5.834;2023-04-01T00:15:31;99154.88;;;9.83;83.68
76114;BME280;64845;53.086;5.834;2023-04-01T00:17:56;99154.88;;;9.83;83.40
76114;BME280;64845;53.086;5.834;2023-04-01T00:20:22;99153.03;;;9.83;83.73
76114;BME280;64845;53.086;5.834;2023-04-01T00:22:48;99157.53;;;9.83;83.31
76114;BME280;64845;53.086;5.834;2023-04-01T00:25:15;99159.31;;;9.82;83.52
76114;BME280;64845;53.086;5.834;2023-04-01T00:27:41;99150.47;;;9.82;83.29
76114;BME280;64845;53.086;5.834;2023-04-01T00:30:07;99154.88;;;9.83;83.49
76114;BME280;64845;53.086;5.834;2023-04-01T00:32:33;99159.31;;;9.82;83.57
76114;BME280;64845;53.086;5.834;2023-04-01T00:34:59;99152.28;;;9.81;83.58
76114;BME280;64845;53.086;5.834;2023-04-01T00:37:26;99157.53;;;9.83;83.38
76114;BME280;64845;53.086;5.834;2023-04-01T00:39:51;99155.81;;;9.82;83.37
76114;BME280;64845;53.086;5.834;2023-04-01T00:42:17;99155.81;;;9.82;83.41
76114;BME280;64845;53.086;5.834;2023-04-01T00:44:46;99154.88;;;9.83;83.36
76114;BME280;64845;53.086;5.834;2023-04-01T00:47:13;99152.28;;;9.81;83.74
76114;BME280;64845;53.086;5.834;2023-04-01T00:49:40;99160.28;;;9.81;83.43
76114;BME280;64845;53.086;5.834;2023-04-01T00:52:08;99157.59;;;9.81;83.67
76114;BME280;64845;53.086;5.834;2023-04-01T00:54:36;99157.53;;;9.83;83.41
76114;BME280;64845;53.086;5.834;2023-04-01T00:57:07;99160.19;;;9.83;83.45
76114;BME280;64845;53.086;5.834;2023-04-01T00:59:39;99154.88;;;9.83;83.46
76114;BME280;64845;53.086;5.834;2023-04-01T01:02:07;99161.91;;;9.84;83.48
76114;BME280;64845;53.086;5.834;2023-04-01T01:04:34;99152.19;;;9.83;83.69
76114;BME280;64845;53.086;5.834;2023-04-01T01:18:35;99167.63;;;9.78;83.72
76114;BME280;64845;53.086;5.834;2023-04-01T01:37:25;99178.28;;;9.78;83.69
76114;BME280;64845;53.086;5.834;2023-04-01T01:40:04;99177.44;;;9.77;83.43
76114;BME280;64845;53.086;5.834;2023-04-01T01:42:31;99177.44;;;9.77;83.58
76114;BME280;64845;53.086;5.834;2023-04-01T01:44:59;99180.94;;;9.78;83.46
76114;BME280;64845;53.086;5.834;2023-04-01T01:47:25;99178.28;;;9.78;83.52
76114;BME280;64845;53.086;5.834;2023-04-01T01:49:53;99184.56;;;9.77;83.50
76114;BME280;64845;53.086;5.834;2023-04-01T01:52:22;99179.22;;;9.77;83.41
76114;BME280;64845;53.086;5.834;2023-04-01T01:54:52;99189.88;;;9.77;83.32
76114;BME280;64845;53.086;5.834;2023-04-01T01:57:19;99194.28;;;9.78;83.84
76114;BME280;64845;53.086;5.834;2023-04-01T01:59:48;99188.94;;;9.78;83.20
76114;BME280;64845;53.086;5.834;2023-04-01T02:02:15;99197.69;;;9.80;83.54
76114;BME280;64845;53.086;5.834;2023-04-01T02:04:43;99198.66;;;9.79;83.46
76114;BME280;64845;53.086;5.834;2023-04-01T02:07:31;99195.97;;;9.79;83.41
76114;BME280;64845;53.086;5.834;2023-04-01T02:09:59;99196.84;;;9.79;83.47
76114;BME280;64845;53.086;5.834;2023-04-01T02:12:24;99208.38;;;9.80;83.42
76114;BME280;64845;53.086;5.834;2023-04-01T02:17:18;99211.03;;;9.80;83.48
76114;BME280;64845;53.086;5.834;2023-04-01T02:19:53;99204.75;;;9.81;83.40
76114;BME280;64845;53.086;5.834;2023-04-01T02:22:28;99217.13;;;9.82;83.72
76114;BME280;64845;53.086;5.834;2023-04-01T02:25:00;99222.47;;;9.82;83.74
76114;BME280;64845;53.086;5.834;2023-04-01T02:27:26;99220.63;;;9.82;83.68
76114;BME280;64845;53.086;5.834;2023-04-01T02:29:52;99216.19;;;9.83;83.50
76114;BME280;64845;53.086;5.834;2023-04-01T02:32:19;99212.75;;;9.81;83.83
76114;BME280;64845;53.086;5.834;2023-04-01T02:34:46;99219.78;;;9.82;83.52
76114;BME280;64845;53.086;5.834;2023-04-01T02:37:12;99220.63;;;9.82;83.74
76114;BME280;64845;53.086;5.834;2023-04-01T02:39:38;99225.97;;;9.82;83.79
76114;BME280;64845;53.086;5.834;2023-04-01T02:42:03;99229.50;;;9.83;83.56
76114;BME280;64845;53.086;5.834;2023-04-01T02:44:29;99227.69;;;9.83;83.68
76114;BME280;64845;53.086;5.834;2023-04-01T02:46:54;99235.69;;;9.83;83.84
76114;BME280;64845;53.086;5.834;2023-04-01T02:49:20;99241.88;;;9.84;83.69
76114;BME280;64845;53.086;5.834;2023-04-01T02:51:45;99228.56;;;9.84;83.43
76114;BME280;64845;53.086;5.834;2023-04-01T02:54:11;99235.59;;;9.85;83.54
76114;BME280;64845;53.086;5.834;2023-04-01T02:56:36;99239.09;;;9.86;83.71
76114;BME280;64845;53.086;5.834;2023-04-01T02:59:01;99242.66;;;9.86;83.63
76114;BME280;64845;53.086;5.834;2023-04-01T03:01:27;99241.69;;;9.87;83.85
76114;BME280;64845;53.086;5.834;2023-04-01T03:03:52;99247.09;;;9.86;83.56
76114;BME280;64845;53.086;5.834;2023-04-01T03:06:17;99243.59;;;9.85;83.77
76114;BME280;64845;53.086;5.834;2023-04-01T03:08:43;99256.16;;;9.83;83.43
76114;BME280;64845;53.086;5.834;2023-04-01T03:11:09;99253.38;;;9.85;83.87
76114;BME280;64845;53.086;5.834;2023-04-01T03:13:35;99261.50;;;9.83;83.54
76114;BME280;64845;53.086;5.834;2023-04-01T03:16:01;99258.06;;;9.81;83.67
76114;BME280;64845;53.086;5.834;2023-04-01T03:18:26;99266.06;;;9.81;83.76
76114;BME280;64845;53.086;5.834;2023-04-01T03:20:51;99269.56;;;9.81;83.80
76114;BME280;64845;53.086;5.834;2023-04-01T03:23:17;99275.78;;;9.82;83.33
76114;BME280;64845;53.086;5.834;2023-04-01T03:25:45;99280.22;;;9.81;83.51
76114;BME280;64845;53.086;5.834;2023-04-01T03:28:10;99282.91;;;9.81;83.60
76114;BME280;64845;53.086;5.834;2023-04-01T03:30:37;99278.53;;;9.80;83.52
76114;BME280;64845;53.086;5.834;2023-04-01T03:33:02;99284.72;;;9.81;83.54
76114;BME280;64845;53.086;5.834;2023-04-01T03:35:28;99275.78;;;9.82;83.49
76114;BME280;64845;53.086;5.834;2023-04-01T03:37:54;99294.44;;;9.82;83.41
76114;BME280;64845;53.086;5.834;2023-04-01T03:40:20;99302.44;;;9.82;83.53
76114;BME280;64845;53.086;5.834;2023-04-01T03:42:46;99298.03;;;9.81;83.73
76114;BME280;64845;53.086;5.834;2023-04-01T03:45:12;99299.00;;;9.80;83.39
76114;BME280;64845;53.086;5.834;2023-04-01T03:47:38;99298.16;;;9.79;83.71
76114;BME280;64845;53.086;5.834;2023-04-01T03:50:05;99298.16;;;9.79;83.67
76114;BME280;64845;53.086;5.834;2023-04-01T03:52:31;99307.00;;;9.80;83.85
76114;BME280;64845;53.086;5.834;2023-04-01T03:54:56;99307.88;;;9.80;83.81
76114;BME280;64845;53.086;5.834;2023-04-01T03:57:21;99314.03;;;9.81;83.81
76114;BME280;64845;53.086;5.834;2023-04-01T03:59:47;99315.00;;;9.80;83.71
76114;BME280;64845;53.086;5.834;2023-04-01T04:02:12;99315.00;;;9.80;83.34
76114;BME280;64845;53.086;5.834;2023-04-01T04:04:37;99322.16;;;9.79;83.66
76114;BME280;64845;53.086;5.834;2023-04-01T04:07:03;99317.66;;;9.80;83.53
76114;BME280;64845;53.086;5.834;2023-04-01T04:09:30;99326.59;;;9.79;83.53
76114;BME280;64845;53.086;5.834;2023-04-01T04:11:56;99332.81;;;9.79;83.66
76114;BME280;64845;53.086;5.834;2023-04-01T04:14:23;99330.22;;;9.78;83.64
76114;BME280;64845;53.086;5.834;2023-04-01T04:16:48;99331.16;;;9.77;83.51
76114;BME280;64845;53.086;5.834;2023-04-01T04:19:14;99325.00;;;9.76;83.73
76114;BME280;64845;53.086;5.834;2023-04-01T04:21:41;99342.78;;;9.76;83.41
76114;BME280;64845;53.086;5.834;2023-04-01T04:24:07;99336.69;;;9.74;83.78
76114;BME280;64845;53.086;5.834;2023-04-01T04:26:32;99345.53;;;9.74;83.44
76114;BME280;64845;53.086;5.834;2023-04-01T04:28:58;99338.56;;;9.72;83.45
76114;BME280;64845;53.086;5.834;2023-04-01T04:31:24;99346.56;;;9.72;83.68
76114;BME280;64845;53.086;5.834;2023-04-01T04:33:50;99358.22;;;9.71;83.57
76114;BME280;64845;53.086;5.834;2023-04-01T04:36:17;99352.09;;;9.68;83.70
76114;BME280;64845;53.086;5.834;2023-04-01T04:38:43;99352.28;;;9.65;83.47
76114;BME280;64845;53.086;5.834;2023-04-01T04:41:15;99364.84;;;9.63;83.33
76114;BME280;64845;53.086;5.834;2023-04-01T04:43:52;99364.06;;;9.61;83.87
76114;BME280;64845;53.086;5.834;2023-04-01T04:46:18;99363.22;;;9.61;83.67
76114;BME280;64845;53.086;5.834;2023-04-01T04:48:43;99372.16;;;9.60;83.69
76114;BME280;64845;53.086;5.834;2023-04-01T04:51:13;99374.91;;;9.58;83.64
76114;BME280;64845;53.086;5.834;2023-04-01T04:53:39;99376.72;;;9.58;83.42
76114;BME280;64845;53.086;5.834;2023-04-01T04:56:05;99379.47;;;9.56;83.53
76114;BME280;64845;53.086;5.834;2023-04-01T04:58:30;99386.59;;;9.56;83.84
76114;BME280;64845;53.086;5.834;2023-04-01T05:00:55;99379.56;;;9.55;83.69
76114;BME280;64845;53.086;5.834;2023-04-01T05:03:21;99389.34;;;9.54;83.74
76114;BME280;64845;53.086;5.834;2023-04-01T05:05:54;99390.22;;;9.55;83.92
76114;BME280;64845;53.086;5.834;2023-04-01T05:08:19;99395.56;;;9.55;83.85
76114;BME280;64845;53.086;5.834;2023-04-01T05:10:45;99401.72;;;9.55;83.56
76114;BME280;64845;53.086;5.834;2023-04-01T05:13:10;99404.38;;;9.55;83.70
76114;BME280;64845;53.086;5.834;2023-04-01T05:15:36;99409.66;;;9.57;83.76
76114;BME280;64845;53.086;5.834;2023-04-01T05:18:02;99414.09;;;9.56;83.91
76114;BME280;64845;53.086;5.834;2023-04-01T05:20:27;99411.53;;;9.55;83.47
76114;BME280;64845;53.086;5.834;2023-04-01T05:22:56;99419.59;;;9.53;83.78
76114;BME280;64845;53.086;5.834;2023-04-01T05:25:22;99416.09;;;9.52;83.90
76114;BME280;64845;53.086;5.834;2023-04-01T05:27:47;99422.38;;;9.51;83.85
76114;BME280;64845;53.086;5.834;2023-04-01T05:30:12;99421.53;;;9.51;83.76
76114;BME280;64845;53.086;5.834;2023-04-01T05:32:38;99429.50;;;9.51;83.56
76114;BME280;64845;53.086;5.834;2023-04-01T05:35:04;99432.25;;;9.49;83.80
76114;BME280;64845;53.086;5.834;2023-04-01T05:37:29;99437.69;;;9.48;83.97
76114;BME280;64845;53.086;5.834;2023-04-01T05:39:55;99431.56;;;9.46;83.65
76114;BME280;64845;53.086;5.834;2023-04-01T05:42:20;99442.25;;;9.46;83.60
76114;BME280;64845;53.086;5.834;2023-04-01T05:44:45;99444.03;;;9.45;83.61
76114;BME280;64845;53.086;5.834;2023-04-01T05:47:11;99445.75;;;9.46;83.98
76114;BME280;64845;53.086;5.834;2023-04-01T05:49:36;99444.81;;;9.47;83.77
76114;BME280;64845;53.086;5.834;2023-04-01T05:52:01;99459.00;;;9.48;83.69
76114;BME280;64845;53.086;5.834;2023-04-01T05:54:27;99462.50;;;9.48;83.88
76114;BME280;64845;53.086;5.834;2023-04-01T05:56:52;99461.56;;;9.49;83.66
76114;BME280;64845;53.086;5.834;2023-04-01T05:59:18;99468.63;;;9.50;84.07
76114;BME280;64845;53.086;5.834;2023-04-01T06:01:43;99473.94;;;9.50;84.03
76114;BME280;64845;53.086;5.834;2023-04-01T06:04:16;99478.44;;;9.50;84.50
76114;BME280;64845;53.086;5.834;2023-04-01T06:06:42;99480.16;;;9.51;83.97
76114;BME280;64845;53.086;5.834;2023-04-01T06:09:18;99481.94;;;9.50;83.95
76114;BME280;64845;53.086;5.834;2023-04-01T06:26:21;99498.19;;;9.46;83.90
76114;BME280;64845;53.086;5.834;2023-04-01T06:40:05;99522.06;;;9.47;84.07
76114;BME280;64845;53.086;5.834;2023-04-01T06:45:27;99526.56;;;9.47;83.79
76114;BME280;64845;53.086;5.834;2023-04-01T06:56:07;99550.44;;;9.48;84.27
76114;BME280;64845;53.086;5.834;2023-04-01T06:58:42;99553.19;;;9.47;84.16
76114;BME280;64845;53.086;5.834;2023-04-01T07:01:16;99548.66;;;9.49;84.25
76114;BME280;64845;53.086;5.834;2023-04-01T07:04:09;99554.81;;;9.49;84.09
76114;BME280;64845;53.086;5.834;2023-04-01T07:06:47;99560.09;;;9.51;84.02
76114;BME280;64845;53.086;5.834;2023-04-01T07:09:22;99559.88;;;9.54;83.96
76114;BME280;64845;53.086;5.834;2023-04-01T07:11:50;99573.16;;;9.56;84.12
76114;BME280;64845;53.086;5.834;2023-04-01T07:14:39;99573.06;;;9.57;83.99
76114;BME280;64845;53.086;5.834;2023-04-01T07:17:30;99579.16;;;9.59;83.90
76114;BME280;64845;53.086;5.834;2023-04-01T07:20:13;99579.94;;;9.61;84.36
76114;BME280;64845;53.086;5.834;2023-04-01T07:22:45;99587.00;;;9.62;84.08
76114;BME280;64845;53.086;5.834;2023-04-01T07:25:15;99585.16;;;9.63;83.88
76114;BME280;64845;53.086;5.834;2023-04-01T07:27:43;99590.44;;;9.64;83.91
76114;BME280;64845;53.086;5.834;2023-04-01T07:30:17;99598.31;;;9.66;84.27
76114;BME280;64845;53.086;5.834;2023-04-01T07:33:04;99598.25;;;9.67;84.32
76114;BME280;64845;53.086;5.834;2023-04-01T07:35:49;99604.38;;;9.70;83.96
76114;BME280;64845;53.086;5.834;2023-04-01T07:46:25;99618.28;;;9.75;83.94
76114;BME280;64845;53.086;5.834;2023-04-01T07:49:03;99627.06;;;9.77;84.20
76114;BME280;64845;53.086;5.834;2023-04-01T07:51:57;99635.06;;;9.77;84.20
76114;BME280;64845;53.086;5.834;2023-04-01T07:54:37;99636.78;;;9.78;84.07
76114;BME280;64845;53.086;5.834;2023-04-01T08:05:41;99654.34;;;9.82;84.22
76114;BME280;64845;53.086;5.834;2023-04-01T08:11:04;99664.06;;;9.83;84.17
76114;BME280;64845;53.086;5.834;2023-04-01T08:16:47;99672.84;;;9.85;84.29
76114;BME280;64845;53.086;5.834;2023-04-01T08:21:42;99678.00;;;9.88;84.31
76114;BME280;64845;53.086;5.834;2023-04-01T08:24:42;99686.78;;;9.90;84.26
76114;BME280;64845;53.086;5.834;2023-04-01T08:27:18;99692.00;;;9.92;84.00
76114;BME280;64845;53.086;5.834;2023-04-01T08:29:58;99698.19;;;9.92;84.01
76114;BME280;64845;53.086;5.834;2023-04-01T08:32:39;99698.19;;;9.92;84.05
76114;BME280;64845;53.086;5.834;2023-04-01T08:35:27;99705.97;;;9.97;84.27
76114;BME280;64845;53.086;5.834;2023-04-01T08:38:00;99705.03;;;9.98;84.19
76114;BME280;64845;53.086;5.834;2023-04-01T08:40:50;99715.44;;;10.03;84.50
76114;BME280;64845;53.086;5.834;2023-04-01T08:57:00;99732.63;;;10.13;84.08
76114;BME280;64845;53.086;5.834;2023-04-01T08:59:49;99752.19;;;10.13;84.12
76114;BME280;64845;53.086;5.834;2023-04-01T09:10:31;99767.31;;;10.13;84.04
76114;BME280;64845;53.086;5.834;2023-04-01T09:19:06;99773.38;;;10.17;83.96
76114;BME280;64845;53.086;5.834;2023-04-01T09:27:32;99781.94;;;10.22;84.05
76114;BME280;64845;53.086;5.834;2023-04-01T09:35:50;99790.69;;;10.41;84.14
76114;BME280;64845;53.086;5.834;2023-04-01T09:49:21;99809.66;;;10.53;83.80
76114;BME280;64845;53.086;5.834;2023-04-01T09:57:55;99831.34;;;10.47;83.60
76114;BME280;64845;53.086;5.834;2023-04-01T10:00:38;99829.63;;;10.46;83.70
76114;BME280;64845;53.086;5.834;2023-04-01T10:08:36;99844.28;;;10.54;83.77
76114;BME280;64845;53.086;5.834;2023-04-01T10:14:24;99857.78;;;10.51;83.61
76114;BME280;64845;53.086;5.834;2023-04-01T10:36:56;99883.59;;;10.84;83.35
76114;BME280;64845;53.086;5.834;2023-04-01T11:11:20;99937.19;;;10.97;82.49
76114;BME280;64845;53.086;5.834;2023-04-01T11:25:46;99963.72;;;11.00;82.00
76114;BME280;64845;53.086;5.834;2023-04-01T11:39:23;99984.22;;;11.00;81.63
76114;BME280;64845;53.086;5.834;2023-04-01T11:42:00;99988.53;;;11.02;81.67
76114;BME280;64845;53.086;5.834;2023-04-01T11:44:29;100000.88;;;11.05;81.64
76114;BME280;64845;53.086;5.834;2023-04-01T11:47:18;99988.38;;;11.06;81.59
76114;BME280;64845;53.086;5.834;2023-04-01T11:55:53;100013.69;;;10.98;81.29
76114;BME280;64845;53.086;5.834;2023-04-01T11:58:44;100014.56;;;10.99;81.12
76114;BME280;64845;53.086;5.834;2023-04-01T12:01:28;100016.19;;;11.01;81.06
76114;BME280;64845;53.086;5.834;2023-04-01T12:18:20;100054.75;;;11.13;80.72
76114;BME280;64845;53.086;5.834;2023-04-01T12:40:40;100091.13;;;10.82;79.91
76114;BME280;64845;53.086;5.834;2023-04-01T12:46:24;100103.69;;;10.80;79.93
76114;BME280;64845;53.086;5.834;2023-04-01T13:07:59;100139.25;;;10.81;79.37
76114;BME280;64845;53.086;5.834;2023-04-01T13:10:46;100141.75;;;10.84;79.30
76114;BME280;64845;53.086;5.834;2023-04-01T13:16:24;100155.06;;;10.85;79.35
76114;BME280;64845;53.086;5.834;2023-04-01T13:26:36;100161.94;;;10.89;79.05
76114;BME280;64845;53.086;5.834;2023-04-01T13:29:18;100164.63;;;10.89;79.11
76114;BME280;64845;53.086;5.834;2023-04-01T13:32:16;100174.44;;;10.89;78.92
76114;BME280;64845;53.086;5.834;2023-04-01T13:37:50;100175.31;;;10.89;78.86
76114;BME280;64845;53.086;5.834;2023-04-01T13:43:02;100194.88;;;10.90;78.77
76114;BME280;64845;53.086;5.834;2023-04-01T13:45:42;100193.53;;;10.81;78.70
76114;BME280;64845;53.086;5.834;2023-04-01T13:57:34;100226.66;;;10.60;78.40
76114;BME280;64845;53.086;5.834;2023-04-01T14:06:02;100252.13;;;10.48;78.20
76114;BME280;64845;53.086;5.834;2023-04-01T14:08:41;100250.47;;;10.45;78.12
76114;BME280;64845;53.086;5.834;2023-04-01T14:19:32;100269.44;;;10.39;77.88
76114;BME280;64845;53.086;5.834;2023-04-01T14:22:30;100285.50;;;10.37;77.81
76114;BME280;64845;53.086;5.834;2023-04-01T14:35:55;100296.44;;;10.12;77.72
76114;BME280;64845;53.086;5.834;2023-04-01T14:39:06;100301.84;;;10.10;77.55
76114;BME280;64845;53.086;5.834;2023-04-01T14:44:49;100315.47;;;10.04;77.52
76114;BME280;64845;53.086;5.834;2023-04-01T14:50:46;100335.28;;;9.98;77.52
76114;BME280;64845;53.086;5.834;2023-04-01T14:55:52;100337.28;;;9.93;77.56
76114;BME280;64845;53.086;5.834;2023-04-01T14:58:23;100338.22;;;9.92;77.18
76114;BME280;64845;53.086;5.834;2023-04-01T15:04:26;100353.69;;;9.84;77.33
76114;BME280;64845;53.086;5.834;2023-04-01T15:17:43;100391.41;;;9.75;77.05
76114;BME280;64845;53.086;5.834;2023-04-01T15:20:29;100397.69;;;9.74;77.01
76114;BME280;64845;53.086;5.834;2023-04-01T15:23:25;100404.75;;;9.75;76.84
76114;BME280;64845;53.086;5.834;2023-04-01T15:29:01;100421.88;;;9.69;76.98
76114;BME280;64845;53.086;5.834;2023-04-01T15:31:38;100423.72;;;9.67;76.69
76114;BME280;64845;53.086;5.834;2023-04-01T15:34:41;100424.06;;;9.59;76.68
76114;BME280;64845;53.086;5.834;2023-04-01T15:38:02;100428.72;;;9.54;76.76
76114;BME280;64845;53.086;5.834;2023-04-01T15:40:30;100446.81;;;9.46;76.95
76114;BME280;64845;53.086;5.834;2023-04-01T15:50:53;100454.00;;;9.21;76.47
76114;BME280;64845;53.086;5.834;2023-04-01T15:55:50;100475.44;;;9.18;76.38
76114;BME280;64845;53.086;5.834;2023-04-01T15:58:21;100468.38;;;9.17;76.65
76114;BME280;64845;53.086;5.834;2023-04-01T16:07:20;100501.56;;;9.09;76.43
76114;BME280;64845;53.086;5.834;2023-04-01T16:20:20;100535.81;;;8.94;76.31
76114;BME280;64845;53.086;5.834;2023-04-01T16:23:03;100534.03;;;8.95;76.36
76114;BME280;64845;53.086;5.834;2023-04-01T16:31:03;100543.97;;;8.89;76.16
76114;BME280;64845;53.086;5.834;2023-04-01T16:34:07;100559.22;;;8.86;76.16
76114;BME280;64845;53.086;5.834;2023-04-01T16:36:44;100570.81;;;8.83;76.59
76114;BME280;64845;53.086;5.834;2023-04-01T16:41:53;100585.34;;;8.74;76.43
76114;BME280;64845;53.086;5.834;2023-04-01T16:44:26;100589.09;;;8.69;76.24
76114;BME280;64845;53.086;5.834;2023-04-01T16:49:40;100601.84;;;8.59;76.03
76114;BME280;64845;53.086;5.834;2023-04-01T16:54:58;100621.72;;;8.49;76.00
76114;BME280;64845;53.086;5.834;2023-04-01T16:57:27;100614.63;;;8.47;76.35
76114;BME280;64845;53.086;5.834;2023-04-01T17:02:37;100624.63;;;8.41;76.36
76114;BME280;64845;53.086;5.834;2023-04-01T17:05:05;100634.47;;;8.37;76.04
76114;BME280;64845;53.086;5.834;2023-04-01T17:07:48;100636.38;;;8.34;75.98
76114;BME280;64845;53.086;5.834;2023-04-01T17:23:21;100671.59;;;8.13;76.36
76114;BME280;64845;53.086;5.834;2023-04-01T17:26:04;100675.28;;;8.09;76.09
76114;BME280;64845;53.086;5.834;2023-04-01T17:34:21;100701.91;;;8.08;76.10
76114;BME280;64845;53.086;5.834;2023-04-01T17:42:40;100723.38;;;8.01;76.42
76114;BME280;64845;53.086;5.834;2023-04-01T17:48:06;100741.28;;;7.95;76.31
76114;BME280;64845;53.086;5.834;2023-04-01T18:12:19;100797.03;;;7.66;76.48
76114;BME280;64845;53.086;5.834;2023-04-01T18:15:19;100804.19;;;7.64;76.53
76114;BME280;64845;53.086;5.834;2023-04-01T18:17:58;100811.28;;;7.64;76.46
76114;BME280;64845;53.086;5.834;2023-04-01T18:20:36;100821.97;;;7.62;76.19
76114;BME280;64845;53.086;5.834;2023-04-01T18:25:52;100839.81;;;7.57;76.36
76114;BME280;64845;53.086;5.834;2023-04-01T18:28:21;100848.75;;;7.54;76.23
76114;BME280;64845;53.086;5.834;2023-04-01T18:30:55;100856.78;;;7.51;76.43
76114;BME280;64845;53.086;5.834;2023-04-01T18:33:42;100864.84;;;7.48;76.17
76114;BME280;64845;53.086;5.834;2023-04-01T18:39:35;100871.06;;;7.46;76.49
76114;BME280;64845;53.086;5.834;2023-04-01T18:42:33;100879.16;;;7.43;76.14
76114;BME280;64845;53.086;5.834;2023-04-01T18:45:01;100888.97;;;7.39;76.23
76114;BME280;64845;53.086;5.834;2023-04-01T18:50:24;100901.47;;;7.35;76.27
76114;BME280;64845;53.086;5.834;2023-04-01T18:53:08;100902.31;;;7.36;76.32
76114;BME280;64845;53.086;5.834;2023-04-01T18:55:40;100898.84;;;7.34;76.42
76114;BME280;64845;53.086;5.834;2023-04-01T18:58:36;100920.25;;;7.28;76.40
76114;BME280;64845;53.086;5.834;2023-04-01T19:01:31;100915.84;;;7.26;76.37
76114;BME280;64845;53.086;5.834;2023-04-01T19:04:20;100929.13;;;7.26;76.21
76114;BME280;64845;53.086;5.834;2023-04-01T19:06:55;100934.44;;;7.26;76.36
76114;BME280;64845;53.086;5.834;2023-04-01T19:09:29;100932.69;;;7.25;75.95
76114;BME280;64845;53.086;5.834;2023-04-01T19:15:07;100948.72;;;7.21;76.05
76114;BME280;64845;53.086;5.834;2023-04-01T19:20:22;100974.47;;;7.17;76.17
76114;BME280;64845;53.086;5.834;2023-04-01T19:25:38;100973.59;;;7.17;76.15
76114;BME280;64845;53.086;5.834;2023-04-01T19:49:58;101030.63;;;6.99;75.80
76114;BME280;64845;53.086;5.834;2023-04-01T19:52:37;101038.63;;;6.97;75.72
76114;BME280;64845;53.086;5.834;2023-04-01T20:00:37;101054.56;;;6.97;75.61
76114;BME280;64845;53.086;5.834;2023-04-01T20:03:10;101063.44;;;6.96;75.55
76114;BME280;64845;53.086;5.834;2023-04-01T20:08:21;101078.66;;;6.86;75.57
76114;BME280;64845;53.086;5.834;2023-04-01T20:11:04;101085.78;;;6.84;75.67
76114;BME280;64845;53.086;5.834;2023-04-01T20:16:49;101094.72;;;6.80;75.61
76114;BME280;64845;53.086;5.834;2023-04-01T20:19:26;101105.38;;;6.78;75.51
76114;BME280;64845;53.086;5.834;2023-04-01T20:21:56;101109.88;;;6.75;75.50
76114;BME280;64845;53.086;5.834;2023-04-01T20:24:29;101107.22;;;6.75;75.47
76114;BME280;64845;53.086;5.834;2023-04-01T20:27:08;101108.97;;;6.74;75.52
76114;BME280;64845;53.086;5.834;2023-04-01T20:33:06;101119.63;;;6.73;75.60
76114;BME280;64845;53.086;5.834;2023-04-01T20:35:37;101132.06;;;6.71;75.45
76114;BME280;64845;53.086;5.834;2023-04-01T20:38:19;101139.97;;;6.72;75.36
76114;BME280;64845;53.086;5.834;2023-04-01T20:40:56;101148.84;;;6.71;75.43
76114;BME280;64845;53.086;5.834;2023-04-01T20:46:20;101165.69;;;6.69;75.39
76114;BME280;64845;53.086;5.834;2023-04-01T20:51:32;101162.25;;;6.63;75.35
76114;BME280;64845;53.086;5.834;2023-04-01T21:08:06;101193.34;;;6.55;75.25
76114;BME280;64845;53.086;5.834;2023-04-01T21:10:45;101197.75;;;6.56;75.19
76114;BME280;64845;53.086;5.834;2023-04-01T21:26:26;101241.31;;;6.41;75.16
76114;BME280;64845;53.086;5.834;2023-04-01T21:50:55;101301.50;;;6.36;74.98
76114;BME280;64845;53.086;5.834;2023-04-01T21:53:54;101299.75;;;6.37;74.97
76114;BME280;64845;53.086;5.834;2023-04-01T22:09:52;101320.16;;;6.31;74.81
76114;BME280;64845;53.086;5.834;2023-04-01T22:12:53;101321.97;;;6.26;74.83
76114;BME280;64845;53.086;5.834;2023-04-01T22:18:23;101337.91;;;6.25;74.67
76114;BME280;64845;53.086;5.834;2023-04-01T22:21:03;101330.84;;;6.24;74.75
76114;BME280;64845;53.086;5.834;2023-04-01T22:23:44;101341.44;;;6.25;74.64
76114;BME280;64845;53.086;5.834;2023-04-01T22:31:34;101340.66;;;6.15;74.57
76114;BME280;64845;53.086;5.834;2023-04-01T22:34:12;101350.44;;;6.12;74.87
76114;BME280;64845;53.086;5.834;2023-04-01T22:50:39;101377.00;;;6.09;74.38
76114;BME280;64845;53.086;5.834;2023-04-01T22:56:11;101386.75;;;6.05;74.36
76114;BME280;64845;53.086;5.834;2023-04-01T22:58:42;101393.81;;;6.04;74.39
76114;BME280;64845;53.086;5.834;2023-04-01T23:01:17;101389.44;;;5.99;74.41
76114;BME280;64845;53.086;5.834;2023-04-01T23:03:48;101402.72;;;5.97;74.29
76114;BME280;64845;53.086;5.834;2023-04-01T23:06:30;101413.34;;;5.93;74.41
76114;BME280;64845;53.086;5.834;2023-04-01T23:09:18;101410.75;;;5.88;74.32
76114;BME280;64845;53.086;5.834;2023-04-01T23:22:26;101440.88;;;5.79;73.99
76114;BME280;64845;53.086;5.834;2023-04-01T23:35:50;101468.28;;;5.78;73.72
76114;BME280;64845;53.086;5.834;2023-04-01T23:38:17;101470.09;;;5.74;73.92
76114;BME280;64845;53.086;5.834;2023-04-01T23:40:42;101472.75;;;5.70;73.86
76114;BME280;64845;53.086;5.834;2023-04-01T23:43:21;101480.75;;;5.67;73.70
76114;BME280;64845;53.086;5.834;2023-04-01T23:45:47;101482.53;;;5.63;73.77
76114;BME280;64845;53.086;5.834;2023-04-01T23:48:15;101486.06;;;5.59;73.63
76114;BME280;64845;53.086;5.834;2023-04-01T23:50:41;101491.44;;;5.56;73.82
76114;BME280;64845;53.086;5.834;2023-04-01T23:53:18;101510.00;;;5.53;73.60
76114;BME280;64845;53.086;5.834;2023-04-01T23:55:46;101513.53;;;5.50;73.43
76114;BME280;64845;53.086;5.834;2023-04-01T23:58:21;101520.63;;;5.47;73.50
